createdAt,value
2024-04-23T01:31:33.019Z,101969.38
2024-04-23T01:32:39.324Z,101974.09
2024-04-23T01:33:45.021Z,101972.48
2024-04-23T01:34:49.013Z,101971.41
2024-04-23T01:35:52.224Z,101970.27
2024-04-23T01:36:54.945Z,101966.97
2024-04-23T01:37:58.554Z,101964.99
2024-04-23T01:39:02.378Z,101969.56
2024-04-23T01:40:07.058Z,101966.89
2024-04-23T01:41:09.801Z,101966.88
2024-04-23T01:42:13.551Z,101965.88
2024-04-23T01:43:17.640Z,101967.38
2024-04-23T01:44:20.719Z,101966.35
2024-04-23T01:45:24.644Z,101965.89
2024-04-23T01:46:28.119Z,101966.70
2024-04-23T01:47:31.261Z,101960.35
2024-04-23T01:48:34.638Z,101962.73
2024-04-23T01:49:38.128Z,101964.23
2024-04-23T01:50:41.075Z,101963.41
2024-04-23T01:51:44.006Z,101961.40
2024-04-23T01:52:46.877Z,101960.87
2024-04-23T01:53:49.680Z,101962.13
2024-04-23T01:54:52.656Z,101960.36
2024-04-23T01:55:56.538Z,101958.31
2024-04-23T01:57:03.921Z,101961.61
2024-04-23T01:58:06.906Z,101960.82
2024-04-23T01:59:09.600Z,101959.33
2024-04-23T02:00:15.409Z,101958.57
2024-04-23T02:01:22.178Z,101960.05
2024-04-23T02:02:26.022Z,101962.02
2024-04-23T02:03:31.152Z,101965.55
2024-04-23T02:04:35.020Z,101960.51
2024-04-23T02:05:39.441Z,101959.89
2024-04-23T02:06:42.624Z,101961.08
2024-04-23T02:07:46.739Z,101958.33
2024-04-23T02:08:50.540Z,101956.18
2024-04-23T02:09:54.091Z,101953.59
2024-04-23T02:10:57.203Z,101953.90
2024-04-23T02:12:04.739Z,101954.48
2024-04-23T02:13:08.979Z,101955.02
2024-04-23T02:14:11.606Z,101953.06
2024-04-23T02:15:14.621Z,101951.10
2024-04-23T02:16:18.034Z,101948.49
2024-04-23T02:17:20.715Z,101947.12
2024-04-23T02:18:23.733Z,101949.10
2024-04-23T02:19:26.600Z,101946.91
2024-04-23T02:20:29.324Z,101948.27
2024-04-23T02:21:32.238Z,101947.96
2024-04-23T02:22:35.275Z,101944.17
2024-04-23T02:23:37.943Z,101947.45
2024-04-23T02:24:40.884Z,101947.21
2024-04-23T02:25:43.506Z,101943.45
2024-04-23T02:26:46.225Z,101940.48
2024-04-23T02:27:49.294Z,101940.05
2024-04-23T02:28:52.028Z,101940.48
2024-04-23T02:29:54.898Z,101941.30
2024-04-23T02:30:57.584Z,101943.56
2024-04-23T02:32:04.195Z,101944.25
2024-04-23T02:33:11.588Z,101944.79
2024-04-23T02:34:14.536Z,101945.31
2024-04-23T02:35:17.632Z,101943.12
2024-04-23T02:36:20.223Z,101945.07
2024-04-23T02:37:23.078Z,101945.35
2024-04-23T02:38:25.738Z,101944.54
2024-04-23T02:39:28.423Z,101948.11
2024-04-23T02:40:31.217Z,101945.89
2024-04-23T02:41:37.721Z,101944.73
2024-04-23T02:42:40.392Z,101945.55
2024-04-23T02:43:43.264Z,101944.35
2024-04-23T02:44:46.004Z,101942.39
2024-04-23T02:45:48.887Z,101945.66
2024-04-23T02:46:51.809Z,101945.99
2024-04-23T02:47:54.624Z,101945.25
2024-04-23T02:48:57.266Z,101945.73
2024-04-23T02:49:59.931Z,101939.40
2024-04-23T02:51:02.742Z,101942.21
2024-04-23T02:52:05.482Z,101940.02
2024-04-23T02:53:08.121Z,101939.14
2024-04-23T02:54:10.802Z,101938.11
2024-04-23T02:55:13.570Z,101939.29
2024-04-23T02:56:16.426Z,101940.88
2024-04-23T02:57:19.287Z,101940.38
2024-04-23T02:58:21.902Z,101936.05
2024-04-23T02:59:24.591Z,101934.02
2024-04-23T03:00:27.369Z,101932.39
2024-04-23T03:01:30.078Z,101935.52
2024-04-23T03:02:32.773Z,101932.24
2024-04-23T03:03:35.499Z,101933.60
2024-04-23T03:04:38.392Z,101931.24
2024-04-23T03:05:41.320Z,101931.98
2024-04-23T03:06:44.009Z,101934.31
2024-04-23T03:07:46.673Z,101933.14
2024-04-23T03:08:50.701Z,101935.21
2024-04-23T03:09:53.580Z,101932.39
2024-04-23T03:10:56.314Z,101932.79
2024-04-23T03:11:59.194Z,101932.98
2024-04-23T03:13:02.251Z,101933.20
2024-04-23T03:14:04.983Z,101930.65
2024-04-23T03:15:08.033Z,101926.92
2024-04-23T03:16:10.698Z,101924.91
2024-04-23T03:17:13.317Z,101924.98
2024-04-23T03:18:16.072Z,101924.95
2024-04-23T03:19:18.983Z,101924.15
2024-04-23T03:20:21.833Z,101927.23
2024-04-23T03:21:24.681Z,101923.73
2024-04-23T03:22:27.502Z,101925.95
2024-04-23T03:23:30.298Z,101923.72
2024-04-23T03:24:35.207Z,101923.25
2024-04-23T03:25:40.159Z,101918.93
2024-04-23T03:26:43.385Z,101923.05
2024-04-23T03:27:46.061Z,101920.00
2024-04-23T03:28:49.022Z,101920.77
2024-04-23T03:29:51.878Z,101920.32
2024-04-23T03:30:54.552Z,101918.42
2024-04-23T03:32:02.834Z,101917.84
2024-04-23T03:33:06.022Z,101915.51
2024-04-23T03:34:08.815Z,101921.34
2024-04-23T03:35:11.790Z,101922.76
2024-04-23T03:36:17.637Z,101917.54
2024-04-23T03:37:20.632Z,101916.76
2024-04-23T03:38:23.260Z,101917.80
2024-04-23T03:39:25.967Z,101913.88
2024-04-23T03:40:28.809Z,101915.02
2024-04-23T03:41:31.901Z,101912.05
2024-04-23T03:42:34.838Z,101914.70
2024-04-23T03:43:37.564Z,101916.32
2024-04-23T03:44:41.567Z,101915.48
2024-04-23T03:45:45.232Z,101916.51
2024-04-23T03:46:47.967Z,101919.84
2024-04-23T03:47:50.921Z,101916.27
2024-04-23T03:48:53.567Z,101913.66
2024-04-23T03:49:56.305Z,101914.52
2024-04-23T03:50:59.132Z,101909.52
2024-04-23T03:52:11.477Z,101908.27
2024-04-23T03:53:14.090Z,101908.98
2024-04-23T03:54:16.835Z,101911.21
2024-04-23T03:55:19.921Z,101909.56
2024-04-23T03:56:22.716Z,101908.95
2024-04-23T03:57:25.375Z,101912.46
2024-04-23T03:58:28.116Z,101912.54
2024-04-23T03:59:30.795Z,101906.02
2024-04-23T04:00:33.647Z,101907.20
2024-04-23T04:01:36.342Z,101902.38
2024-04-23T04:02:57.556Z,101902.09
2024-04-23T04:04:18.946Z,101899.45
2024-04-23T04:05:40.583Z,101901.46
2024-04-23T04:06:43.650Z,101901.20
2024-04-23T04:07:46.323Z,101901.36
2024-04-23T04:08:49.174Z,101902.86
2024-04-23T04:09:51.781Z,101903.45
2024-04-23T04:10:54.628Z,101903.98
2024-04-23T04:11:59.098Z,101904.70
2024-04-23T04:13:12.975Z,101905.70
2024-04-23T04:14:23.956Z,101905.67
2024-04-23T04:15:26.616Z,101904.11
2024-04-23T04:16:33.433Z,101904.28
2024-04-23T04:17:38.293Z,101901.49
2024-04-23T04:18:41.153Z,101902.17
2024-04-23T04:19:46.457Z,101902.67
2024-04-23T04:20:49.433Z,101906.33
2024-04-23T04:21:52.309Z,101906.13
2024-04-23T04:22:55.276Z,101906.49
2024-04-23T04:23:57.991Z,101902.98
2024-04-23T04:25:00.757Z,101907.34
2024-04-23T04:26:04.017Z,101905.96
2024-04-23T04:27:06.867Z,101902.69
2024-04-23T04:28:09.679Z,101904.66
2024-04-23T04:29:12.343Z,101907.34
2024-04-23T04:30:15.116Z,101907.82
2024-04-23T04:31:17.969Z,101904.88
2024-04-23T04:32:20.682Z,101904.35
2024-04-23T04:33:23.599Z,101904.52
2024-04-23T04:34:26.318Z,101905.41
2024-04-23T04:35:29.242Z,101903.13
2024-04-23T04:36:32.007Z,101902.04
2024-04-23T04:37:36.440Z,101902.45
2024-04-23T04:38:39.289Z,101900.52
2024-04-23T04:39:43.881Z,101898.38
2024-04-23T04:40:46.741Z,101896.93
2024-04-23T04:41:49.451Z,101894.13
2024-04-23T04:42:52.463Z,101900.40
2024-04-23T04:43:55.481Z,101903.52
2024-04-23T04:44:58.116Z,101899.39
2024-04-23T04:46:00.803Z,101900.08
2024-04-23T04:47:05.018Z,101897.23
2024-04-23T04:48:09.214Z,101899.82
2024-04-23T04:49:12.410Z,101899.80
2024-04-23T04:50:15.226Z,101899.63
2024-04-23T04:51:20.169Z,101899.92
2024-04-23T04:52:22.973Z,101895.29
2024-04-23T04:53:25.577Z,101897.39
2024-04-23T04:54:28.360Z,101896.61
2024-04-23T04:55:32.056Z,101897.00
2024-04-23T04:56:34.783Z,101894.23
2024-04-23T04:57:37.564Z,101899.05
2024-04-23T04:58:40.492Z,101897.75
2024-04-23T04:59:43.282Z,101891.97
2024-04-23T05:00:46.155Z,101893.23
2024-04-23T05:01:49.644Z,101890.67
2024-04-23T05:02:52.517Z,101890.29
2024-04-23T05:03:58.293Z,101887.20
2024-04-23T05:05:01.294Z,101885.52
2024-04-23T05:06:04.019Z,101884.73
2024-04-23T05:07:06.798Z,101885.40
2024-04-23T05:08:09.671Z,101888.31
2024-04-23T05:09:12.364Z,101884.58
2024-04-23T05:10:15.976Z,101881.88
2024-04-23T05:11:19.164Z,101883.34
2024-04-23T05:12:21.969Z,101885.33
2024-04-23T05:13:24.876Z,101883.13
2024-04-23T05:14:27.801Z,101884.69
2024-04-23T05:15:30.409Z,101885.28
2024-04-23T05:16:33.195Z,101885.39
2024-04-23T05:17:36.394Z,101887.45
2024-04-23T05:18:39.646Z,101886.82
2024-04-23T05:19:44.953Z,101888.02
2024-04-23T05:20:47.674Z,101886.55
2024-04-23T05:21:50.879Z,101890.18
2024-04-23T05:22:53.557Z,101888.38
2024-04-23T05:23:56.461Z,101884.75
2024-04-23T05:24:59.284Z,101882.25
2024-04-23T05:26:02.083Z,101883.27
2024-04-23T05:27:05.077Z,101884.92
2024-04-23T05:28:07.809Z,101884.76
2024-04-23T05:29:10.650Z,101887.82
2024-04-23T05:30:36.138Z,101889.08
2024-04-23T05:31:58.218Z,101890.42
2024-04-23T05:33:01.024Z,101891.88
2024-04-23T05:34:03.755Z,101890.99
2024-04-23T05:35:07.703Z,101892.14
2024-04-23T05:36:10.738Z,101892.13
2024-04-23T05:37:13.666Z,101889.61
2024-04-23T05:38:17.686Z,101895.41
2024-04-23T05:39:20.792Z,101896.73
2024-04-23T05:40:24.030Z,101892.89
2024-04-23T05:41:26.978Z,101896.98
2024-04-23T05:42:29.777Z,101895.64
2024-04-23T05:43:32.593Z,101896.13
2024-04-23T05:44:35.254Z,101896.43
2024-04-23T05:45:38.035Z,101896.15
2024-04-23T05:46:40.945Z,101897.66
2024-04-23T05:48:21.627Z,101893.64
2024-04-23T05:50:26.019Z,101893.67
2024-04-23T05:52:30.429Z,101890.77
2024-04-23T05:54:30.501Z,101894.15
2024-04-23T05:55:51.836Z,101890.52
2024-04-23T05:56:54.612Z,101896.64
2024-04-23T05:57:57.571Z,101897.63
2024-04-23T05:59:00.356Z,101893.31
2024-04-23T06:00:03.360Z,101891.16
2024-04-23T06:01:10.739Z,101892.30
2024-04-23T06:02:13.602Z,101892.22
2024-04-23T06:03:16.258Z,101889.13
2024-04-23T06:04:20.862Z,101893.20
2024-04-23T06:05:24.688Z,101886.44
2024-04-23T06:06:27.617Z,101894.03
2024-04-23T06:07:30.395Z,101892.09
2024-04-23T06:08:33.505Z,101894.74
2024-04-23T06:09:36.218Z,101891.62
2024-04-23T06:10:39.225Z,101890.79
2024-04-23T06:11:42.033Z,101890.91
2024-04-23T06:12:48.100Z,101891.52
2024-04-23T06:14:06.710Z,101885.86
2024-04-23T06:15:09.376Z,101887.11
2024-04-23T06:16:12.400Z,101881.65
2024-04-23T06:17:15.724Z,101887.17
2024-04-23T06:18:23.930Z,101886.52
2024-04-23T06:19:28.755Z,101879.83
2024-04-23T06:20:31.689Z,101883.80
2024-04-23T06:21:34.454Z,101880.71
2024-04-23T06:22:39.931Z,101884.14
2024-04-23T06:23:43.003Z,101879.84
2024-04-23T06:24:50.564Z,101878.23
2024-04-23T06:25:53.184Z,101878.05
2024-04-23T06:26:55.887Z,101879.53
2024-04-23T06:27:58.924Z,101875.92
2024-04-23T06:29:02.482Z,101877.95
2024-04-23T06:30:07.639Z,101876.77
2024-04-23T06:31:13.827Z,101876.88
2024-04-23T06:32:18.344Z,101875.43
2024-04-23T06:33:21.210Z,101877.71
2024-04-23T06:34:24.005Z,101873.32
2024-04-23T06:35:26.749Z,101876.34
2024-04-23T06:36:29.417Z,101876.62
2024-04-23T06:37:33.854Z,101877.38
2024-04-23T06:38:36.813Z,101876.31
2024-04-23T06:39:40.650Z,101879.41
2024-04-23T06:40:43.684Z,101874.45
2024-04-23T06:41:46.362Z,101880.00
2024-04-23T06:42:49.524Z,101882.66
2024-04-23T06:43:52.197Z,101881.45
2024-04-23T06:44:56.144Z,101880.95
2024-04-23T06:45:58.790Z,101877.17
2024-04-23T06:47:01.696Z,101882.15
2024-04-23T06:48:05.137Z,101882.30
2024-04-23T06:49:08.026Z,101879.20
2024-04-23T06:50:10.886Z,101877.80
2024-04-23T06:51:13.890Z,101875.50
2024-04-23T06:52:18.417Z,101877.88
2024-04-23T06:53:21.109Z,101876.20
2024-04-23T06:54:24.002Z,101872.69
2024-04-23T06:55:26.787Z,101869.92
2024-04-23T06:56:29.611Z,101874.42
2024-04-23T06:57:32.308Z,101875.71
2024-04-23T06:58:35.453Z,101869.56
2024-04-23T06:59:38.146Z,101874.30
2024-04-23T07:00:40.799Z,101876.29
2024-04-23T07:01:44.104Z,101872.70
2024-04-23T07:02:47.042Z,101873.17
2024-04-23T07:03:50.087Z,101879.04
2024-04-23T07:04:52.990Z,101876.39
2024-04-23T07:05:55.632Z,101873.27
2024-04-23T07:06:58.639Z,101875.13
2024-04-23T07:08:01.719Z,101877.53
2024-04-23T07:09:05.175Z,101872.00
2024-04-23T07:10:08.796Z,101875.00
2024-04-23T07:11:11.630Z,101873.80
2024-04-23T07:12:14.287Z,101873.31
2024-04-23T07:13:17.186Z,101877.96
2024-04-23T07:14:20.197Z,101878.34
2024-04-23T07:15:23.052Z,101874.45
2024-04-23T07:16:26.259Z,101872.55
2024-04-23T07:17:29.055Z,101872.45
2024-04-23T07:18:31.945Z,101867.55
2024-04-23T07:19:34.652Z,101864.98
2024-04-23T07:20:38.338Z,101863.83
2024-04-23T07:21:41.189Z,101869.79
2024-04-23T07:22:43.963Z,101875.05
2024-04-23T07:23:46.626Z,101870.17
2024-04-23T07:24:49.759Z,101873.87
2024-04-23T07:25:52.586Z,101878.11
2024-04-23T07:26:55.456Z,101873.18
2024-04-23T07:27:58.790Z,101881.77
2024-04-23T07:29:01.831Z,101871.60
2024-04-23T07:30:05.763Z,101878.16
2024-04-23T07:31:08.399Z,101875.48
2024-04-23T07:32:14.494Z,101879.27
2024-04-23T07:33:19.087Z,101875.52
2024-04-23T07:34:21.924Z,101874.44
2024-04-23T07:35:26.192Z,101871.17
2024-04-23T07:36:29.733Z,101874.88
2024-04-23T07:37:32.783Z,101867.86
2024-04-23T07:38:37.098Z,101865.89
2024-04-23T07:39:39.875Z,101867.35
2024-04-23T07:40:49.252Z,101867.95
2024-04-23T07:41:52.058Z,101868.81
2024-04-23T07:42:54.757Z,101873.85
2024-04-23T07:43:57.641Z,101871.15
2024-04-23T07:45:00.420Z,101867.85
2024-04-23T07:46:03.143Z,101865.79
2024-04-23T07:47:06.131Z,101866.23
2024-04-23T07:48:09.369Z,101862.45
2024-04-23T07:49:12.395Z,101864.32
2024-04-23T07:50:15.167Z,101865.77
2024-04-23T07:51:18.006Z,101868.67
2024-04-23T07:52:20.876Z,101865.41
2024-04-23T07:53:23.652Z,101869.17
2024-04-23T07:54:26.537Z,101869.30
2024-04-23T07:55:29.460Z,101868.08
2024-04-23T07:56:32.200Z,101866.13
2024-04-23T07:57:35.088Z,101869.34
2024-04-23T07:58:38.916Z,101868.71
2024-04-23T07:59:41.755Z,101868.02
2024-04-23T08:00:44.605Z,101866.73
2024-04-23T08:01:47.294Z,101859.96
2024-04-23T08:02:55.205Z,101857.49
2024-04-23T08:03:57.854Z,101859.41
2024-04-23T08:05:00.801Z,101858.64
2024-04-23T08:06:03.819Z,101858.75
2024-04-23T08:07:06.642Z,101857.77
2024-04-23T08:08:09.636Z,101855.63
2024-04-23T08:09:12.333Z,101857.59
2024-04-23T08:10:18.763Z,101861.39
2024-04-23T08:11:22.023Z,101858.83
2024-04-23T08:12:24.810Z,101858.85
2024-04-23T08:13:28.652Z,101865.34
2024-04-23T08:14:31.533Z,101866.02
2024-04-23T08:15:34.294Z,101866.89
2024-04-23T08:16:37.104Z,101864.27
2024-04-23T08:17:40.102Z,101865.52
2024-04-23T08:18:43.058Z,101864.50
2024-04-23T08:19:45.917Z,101863.14
2024-04-23T08:20:48.821Z,101865.52
2024-04-23T08:21:52.012Z,101865.36
2024-04-23T08:22:57.743Z,101866.25
2024-04-23T08:24:00.374Z,101865.70
2024-04-23T08:25:03.313Z,101865.61
2024-04-23T08:26:16.304Z,101866.37
2024-04-23T08:27:20.030Z,101863.55
2024-04-23T08:28:22.683Z,101862.26
2024-04-23T08:29:25.476Z,101860.80
2024-04-23T08:30:28.185Z,101861.20
2024-04-23T08:31:31.094Z,101866.60
2024-04-23T08:32:33.952Z,101862.77
2024-04-23T08:33:36.837Z,101870.22
2024-04-23T08:34:39.823Z,101862.36
2024-04-23T08:35:42.680Z,101860.46
2024-04-23T08:36:45.579Z,101862.09
2024-04-23T08:37:48.562Z,101863.77
2024-04-23T08:38:51.587Z,101862.96
2024-04-23T08:39:54.360Z,101860.84
2024-04-23T08:40:57.431Z,101861.98
2024-04-23T08:42:01.959Z,101863.89
2024-04-23T08:43:16.423Z,101860.49
2024-04-23T08:44:22.311Z,101863.16
2024-04-23T08:45:30.261Z,101859.46
2024-04-23T08:46:33.056Z,101862.77
2024-04-23T08:47:37.989Z,101858.36
2024-04-23T08:48:42.280Z,101858.44
2024-04-23T08:49:48.576Z,101860.77
2024-04-23T08:50:52.033Z,101857.46
2024-04-23T08:51:56.780Z,101860.23
2024-04-23T08:53:00.264Z,101850.84
2024-04-23T08:54:05.781Z,101856.58
2024-04-23T08:55:09.254Z,101857.00
2024-04-23T08:56:17.223Z,101853.52
2024-04-23T08:57:20.468Z,101854.83
2024-04-23T08:58:23.717Z,101860.62
2024-04-23T08:59:27.678Z,101856.31
2024-04-23T09:00:38.092Z,101852.14
2024-04-23T09:01:50.409Z,101852.55
2024-04-23T09:02:53.891Z,101850.39
2024-04-23T09:03:58.097Z,101849.92
2024-04-23T09:05:03.611Z,101849.21
2024-04-23T09:06:06.978Z,101851.80
2024-04-23T09:07:17.641Z,101854.91
2024-04-23T09:08:27.713Z,101847.55
2024-04-23T09:09:31.609Z,101850.07
2024-04-23T09:10:35.192Z,101847.83
2024-04-23T09:11:38.023Z,101854.02
2024-04-23T09:12:47.091Z,101852.63
2024-04-23T09:13:50.375Z,101850.48
2024-04-23T09:14:56.597Z,101847.26
2024-04-23T09:15:59.396Z,101850.73
2024-04-23T09:17:02.198Z,101850.68
2024-04-23T09:18:05.449Z,101851.63
2024-04-23T09:19:09.413Z,101850.88
2024-04-23T09:20:15.212Z,101844.16
2024-04-23T09:21:19.513Z,101846.40
2024-04-23T09:22:22.351Z,101845.45
2024-04-23T09:23:28.884Z,101840.69
2024-04-23T09:24:32.329Z,101840.65
2024-04-23T09:25:36.266Z,101841.98
2024-04-23T09:26:39.459Z,101844.64
2024-04-23T09:27:42.278Z,101847.16
2024-04-23T09:28:47.419Z,101841.42
2024-04-23T09:29:55.126Z,101843.45
2024-04-23T09:30:57.835Z,101843.27
2024-04-23T09:32:01.334Z,101842.91
2024-04-23T09:33:04.987Z,101843.86
2024-04-23T09:34:12.032Z,101842.66
2024-04-23T09:35:18.399Z,101838.27
2024-04-23T09:36:26.125Z,101840.34
2024-04-23T09:37:28.784Z,101841.15
2024-04-23T09:38:38.596Z,101840.48
2024-04-23T09:39:44.384Z,101840.30
2024-04-23T09:40:48.884Z,101840.85
2024-04-23T09:42:01.054Z,101836.24
2024-04-23T09:43:04.355Z,101837.42
2024-04-23T09:44:11.890Z,101834.33
2024-04-23T09:45:15.145Z,101832.39
2024-04-23T09:46:17.933Z,101829.92
2024-04-23T09:47:23.324Z,101833.73
2024-04-23T09:48:36.657Z,101828.09
2024-04-23T09:49:39.719Z,101826.88
2024-04-23T09:50:42.467Z,101826.41
2024-04-23T09:51:45.122Z,101826.02
2024-04-23T09:52:49.468Z,101821.43
2024-04-23T09:53:53.807Z,101826.15
2024-04-23T09:54:57.001Z,101825.55
2024-04-23T09:56:05.237Z,101823.50
2024-04-23T09:57:07.985Z,101823.64
2024-04-23T09:58:10.882Z,101817.08
2024-04-23T09:59:16.228Z,101820.01
2024-04-23T10:00:21.167Z,101825.28
2024-04-23T10:01:28.352Z,101819.02
2024-04-23T10:02:37.636Z,101821.52
2024-04-23T10:03:44.047Z,101812.45
2024-04-23T10:04:51.126Z,101820.02
2024-04-23T10:06:02.187Z,101814.65
2024-04-23T10:07:10.080Z,101814.73
2024-04-23T10:08:19.210Z,101812.80
2024-04-23T10:09:28.890Z,101811.37
2024-04-23T10:10:43.540Z,101808.30
2024-04-23T10:11:52.343Z,101804.23
2024-04-23T10:12:57.062Z,101802.65
2024-04-23T10:14:08.102Z,101802.95
2024-04-23T10:15:27.237Z,101798.60
2024-04-23T10:16:40.484Z,101801.95
2024-04-23T10:17:51.428Z,101799.28
2024-04-23T10:19:02.822Z,101799.59
2024-04-23T10:20:08.928Z,101801.63
2024-04-23T10:21:14.971Z,101798.56
2024-04-23T10:22:18.769Z,101801.14
2024-04-23T10:23:22.184Z,101799.88
2024-04-23T10:24:25.552Z,101797.30
2024-04-23T10:25:29.396Z,101799.21
2024-04-23T10:26:34.161Z,101797.79
2024-04-23T10:27:38.884Z,101795.89
2024-04-23T10:28:43.415Z,101795.07
2024-04-23T10:29:46.754Z,101793.80
2024-04-23T10:30:50.432Z,101796.16
2024-04-23T10:31:53.237Z,101795.15
2024-04-23T10:32:57.995Z,101791.52
2024-04-23T10:34:02.662Z,101790.98
2024-04-23T10:35:06.037Z,101788.05
2024-04-23T10:36:10.213Z,101784.34
2024-04-23T10:37:14.713Z,101782.10
2024-04-23T10:38:18.984Z,101782.58
2024-04-23T10:39:23.955Z,101781.86
2024-04-23T10:40:31.414Z,101780.66
2024-04-23T10:41:39.806Z,101777.47
2024-04-23T10:42:44.342Z,101776.66
2024-04-23T10:43:49.327Z,101777.15
2024-04-23T10:44:54.147Z,101777.84
2024-04-23T10:45:56.924Z,101777.34
2024-04-23T10:46:59.678Z,101776.80
2024-04-23T10:48:09.001Z,101772.16
2024-04-23T10:49:17.615Z,101773.70
2024-04-23T10:50:31.780Z,101776.75
2024-04-23T10:51:35.166Z,101776.09
2024-04-23T10:52:37.970Z,101776.94
2024-04-23T10:53:42.056Z,101775.24
2024-04-23T10:54:45.317Z,101775.46
2024-04-23T10:55:52.112Z,101772.65
2024-04-23T10:56:59.798Z,101774.20
2024-04-23T10:58:02.521Z,101774.84
2024-04-23T10:59:12.672Z,101771.80
2024-04-23T11:00:15.852Z,101770.45
2024-04-23T11:01:24.752Z,101772.36
2024-04-23T11:02:27.545Z,101768.48
2024-04-23T11:03:35.253Z,101766.96
2024-04-23T11:04:42.788Z,101767.32
2024-04-23T11:05:49.657Z,101768.59
2024-04-23T11:07:05.161Z,101767.92
2024-04-23T11:08:08.872Z,101766.66
2024-04-23T11:09:22.108Z,101765.08
2024-04-23T11:10:25.390Z,101767.63
2024-04-23T11:11:37.587Z,101765.65
2024-04-23T11:12:48.915Z,101766.78
2024-04-23T11:13:59.066Z,101769.48
2024-04-23T11:15:01.901Z,101770.66
2024-04-23T11:16:19.193Z,101768.02
2024-04-23T11:17:22.944Z,101768.56
2024-04-23T11:18:26.688Z,101769.19
2024-04-23T11:19:40.239Z,101769.79
2024-04-23T11:20:45.635Z,101765.71
2024-04-23T11:21:49.283Z,101767.12
2024-04-23T11:23:00.476Z,101765.95
2024-04-23T11:24:09.305Z,101765.02
2024-04-23T11:25:23.429Z,101764.63
2024-04-23T11:26:26.800Z,101760.02
2024-04-23T11:27:30.638Z,101761.74
2024-04-23T11:28:37.094Z,101758.73
2024-04-23T11:29:41.697Z,101762.04
2024-04-23T11:30:52.367Z,101756.98
2024-04-23T11:31:55.932Z,101756.33
2024-04-23T11:32:58.905Z,101755.48
2024-04-23T11:34:02.879Z,101754.19
2024-04-23T11:35:09.053Z,101749.91
2024-04-23T11:36:13.570Z,101748.69
2024-04-23T11:37:28.766Z,101749.65
2024-04-23T11:38:41.837Z,101750.61
2024-04-23T11:39:44.684Z,101751.09
2024-04-23T11:40:50.752Z,101746.81
2024-04-23T11:41:57.429Z,101749.28
2024-04-23T11:43:00.041Z,101746.94
2024-04-23T11:44:04.926Z,101745.92
2024-04-23T11:45:08.127Z,101746.17
2024-04-23T11:46:15.244Z,101747.45
2024-04-23T11:47:17.986Z,101745.14
2024-04-23T11:48:20.937Z,101748.11
2024-04-23T11:49:27.401Z,101746.98
2024-04-23T11:50:30.668Z,101745.61
2024-04-23T11:51:33.316Z,101740.47
2024-04-23T11:52:36.774Z,101740.87
2024-04-23T11:53:39.722Z,101739.64
2024-04-23T11:54:42.855Z,101732.89
2024-04-23T11:55:46.720Z,101731.79
2024-04-23T11:56:51.228Z,101737.66
2024-04-23T11:57:54.711Z,101737.36
2024-04-23T11:58:59.770Z,101733.92
2024-04-23T12:00:03.717Z,101733.11
2024-04-23T12:01:09.188Z,101736.56
2024-04-23T12:02:13.030Z,101728.48
2024-04-23T12:03:16.612Z,101730.35
2024-04-23T12:04:21.644Z,101726.54
2024-04-23T12:05:27.607Z,101724.18
2024-04-23T12:06:32.038Z,101725.11
2024-04-23T12:07:35.948Z,101724.91
2024-04-23T12:08:39.751Z,101727.08
2024-04-23T12:09:42.602Z,101723.46
2024-04-23T12:10:46.795Z,101727.85
2024-04-23T12:11:49.858Z,101724.20
2024-04-23T12:12:52.860Z,101723.49
2024-04-23T12:13:55.584Z,101723.00
2024-04-23T12:14:58.604Z,101719.73
2024-04-23T12:16:03.056Z,101716.66
2024-04-23T12:17:07.819Z,101715.41
2024-04-23T12:18:11.108Z,101712.20
2024-04-23T12:19:13.956Z,101713.95
2024-04-23T12:20:16.965Z,101713.17
2024-04-23T12:21:19.759Z,101711.02
2024-04-23T12:22:22.961Z,101711.02
2024-04-23T12:23:25.682Z,101707.73
2024-04-23T12:24:30.898Z,101707.39
2024-04-23T12:25:34.555Z,101705.38
2024-04-23T12:26:37.264Z,101705.52
2024-04-23T12:27:45.450Z,101704.54
2024-04-23T12:28:48.523Z,101700.60
2024-04-23T12:29:52.868Z,101701.05
2024-04-23T12:30:56.521Z,101697.73
2024-04-23T12:32:00.452Z,101698.05
2024-04-23T12:33:13.498Z,101695.54
2024-04-23T12:34:19.459Z,101689.10
2024-04-23T12:35:22.381Z,101689.34
2024-04-23T12:36:25.324Z,101689.56
2024-04-23T12:37:28.331Z,101687.85
2024-04-23T12:38:49.345Z,101682.92
2024-04-23T12:39:54.047Z,101676.36
2024-04-23T12:40:56.895Z,101677.81
2024-04-23T12:42:14.072Z,101678.11
2024-04-23T12:43:17.136Z,101676.64
2024-04-23T12:44:22.981Z,101678.75
2024-04-23T12:45:25.931Z,101678.05
2024-04-23T12:46:28.717Z,101681.43
2024-04-23T12:47:31.835Z,101677.19
2024-04-23T12:48:36.057Z,101671.35
2024-04-23T12:49:41.951Z,101663.23
2024-04-23T12:50:44.906Z,101664.14
2024-04-23T12:51:49.054Z,101663.71
2024-04-23T12:52:52.943Z,101662.41
2024-04-23T12:53:56.109Z,101661.63
2024-04-23T12:54:58.750Z,101659.56
2024-04-23T12:56:02.029Z,101662.00
2024-04-23T12:57:07.398Z,101660.38
2024-04-23T12:58:10.137Z,101659.59
2024-04-23T12:59:14.818Z,101659.23
2024-04-23T13:00:17.521Z,101657.55
2024-04-23T13:01:21.464Z,101658.20
2024-04-23T13:02:25.608Z,101659.38
2024-04-23T13:03:28.653Z,101657.16
2024-04-23T13:04:31.894Z,101660.45
2024-04-23T13:05:34.757Z,101662.53
2024-04-23T13:06:37.700Z,101665.27
2024-04-23T13:07:40.526Z,101663.89
2024-04-23T13:08:45.546Z,101664.11
2024-04-23T13:09:48.348Z,101663.17
2024-04-23T13:10:51.206Z,101666.64
2024-04-23T13:11:55.823Z,101670.77
2024-04-23T13:12:59.253Z,101665.33
2024-04-23T13:14:02.132Z,101662.52
2024-04-23T13:15:05.303Z,101665.99
2024-04-23T13:16:10.097Z,101661.61
2024-04-23T13:17:12.856Z,101663.30
2024-04-23T13:18:15.672Z,101660.55
2024-04-23T13:19:21.052Z,101658.55
2024-04-23T13:20:23.748Z,101656.46
2024-04-23T13:21:26.635Z,101653.77
2024-04-23T13:22:29.269Z,101654.06
2024-04-23T13:23:32.297Z,101649.81
2024-04-23T13:24:35.160Z,101648.27
2024-04-23T13:25:39.179Z,101646.71
2024-04-23T13:26:41.958Z,101649.86
2024-04-23T13:27:44.806Z,101649.71
2024-04-23T13:28:47.680Z,101642.96
2024-04-23T13:29:51.361Z,101642.81
2024-04-23T13:30:57.792Z,101642.27
2024-04-23T13:32:01.717Z,101643.13
2024-04-23T13:33:04.918Z,101637.08
2024-04-23T13:34:10.981Z,101642.23
2024-04-23T13:35:13.866Z,101637.36
2024-04-23T13:36:16.792Z,101635.10
2024-04-23T13:37:19.511Z,101633.09
2024-04-23T13:38:22.288Z,101628.91
2024-04-23T13:39:26.013Z,101631.84
2024-04-23T13:40:30.593Z,101629.88
2024-04-23T13:41:33.440Z,101629.83
2024-04-23T13:42:37.144Z,101630.16
2024-04-23T13:43:39.983Z,101630.04
2024-04-23T13:44:43.268Z,101629.87
2024-04-23T13:45:46.090Z,101629.02
2024-04-23T13:46:49.372Z,101630.72
2024-04-23T13:47:52.327Z,101632.39
2024-04-23T13:48:55.340Z,101636.12